createdAt,value
2018-12-09T00:02:02.543Z,1.20
2018-12-09T00:04:31.248Z,1.30
2018-12-09T00:07:00.077Z,1.13
2018-12-09T00:09:29.036Z,1.40
2018-12-09T00:11:57.687Z,1.10
2018-12-09T00:14:26.851Z,1.10
2018-12-09T00:16:56.254Z,1.70
2018-12-09T00:19:25.218Z,1.50
2018-12-09T00:21:53.837Z,1.10
2018-12-09T00:24:22.520Z,1.10
2018-12-09T00:26:51.359Z,1.17
2018-12-09T00:29:20.040Z,1.20
2018-12-09T00:31:48.748Z,1.27
2018-12-09T00:34:17.676Z,1.10
2018-12-09T00:36:46.506Z,1.27
2018-12-09T00:39:15.364Z,1.00
2018-12-09T00:41:44.316Z,1.00
2018-12-09T00:44:12.983Z,1.17
2018-12-09T00:46:42.470Z,1.00
2018-12-09T00:49:11.355Z,1.10
2018-12-09T00:51:40.151Z,1.20
2018-12-09T00:54:08.942Z,1.20
2018-12-09T00:56:37.910Z,1.20
2018-12-09T00:59:06.591Z,1.20
2018-12-09T01:01:35.409Z,1.30
2018-12-09T01:04:04.203Z,1.30
2018-12-09T01:06:32.894Z,1.63
2018-12-09T01:09:01.593Z,1.20
2018-12-09T01:11:30.508Z,0.80
2018-12-09T01:13:59.388Z,1.50
2018-12-09T01:16:28.262Z,0.70
2018-12-09T01:18:57.121Z,0.80
2018-12-09T01:21:25.877Z,0.87
2018-12-09T01:23:54.595Z,0.70
2018-12-09T01:26:23.524Z,0.70
2018-12-09T01:28:52.288Z,0.80
2018-12-09T01:31:20.989Z,0.60
2018-12-09T01:33:49.644Z,0.40
2018-12-09T01:36:18.667Z,0.40
2018-12-09T01:38:47.517Z,0.40
2018-12-09T01:41:16.267Z,0.50
2018-12-09T01:43:45.224Z,0.50
2018-12-09T01:46:13.840Z,0.50
2018-12-09T01:48:43.006Z,0.57
2018-12-09T01:51:11.834Z,0.47
2018-12-09T01:54:12.601Z,0.50
2018-12-09T01:56:41.429Z,0.50
2018-12-09T01:59:10.068Z,0.60
2018-12-09T02:01:38.853Z,0.60
2018-12-09T02:04:07.715Z,0.50
2018-12-09T02:06:36.964Z,0.30
2018-12-09T02:09:08.111Z,0.67
2018-12-09T02:11:37.398Z,0.57
2018-12-09T02:14:06.466Z,0.40
2018-12-09T02:16:35.803Z,0.50
2018-12-09T02:19:18.917Z,0.53
2018-12-09T02:21:47.901Z,0.57
2018-12-09T02:24:17.383Z,0.70
2018-12-09T02:26:46.325Z,0.70
2018-12-09T02:29:15.265Z,0.70
2018-12-09T02:31:44.452Z,0.97
2018-12-09T02:34:13.060Z,0.80
2018-12-09T02:36:41.755Z,0.67
2018-12-09T02:39:11.815Z,0.80
2018-12-09T02:41:40.479Z,0.70
2018-12-09T02:44:09.285Z,0.83
2018-12-09T02:46:38.275Z,1.40
2018-12-09T02:49:06.981Z,1.20
2018-12-09T02:51:35.696Z,1.30
2018-12-09T02:54:04.672Z,1.47
2018-12-09T02:56:33.481Z,1.07
2018-12-09T02:59:02.423Z,1.00
2018-12-09T03:01:31.225Z,1.23
2018-12-09T03:03:59.849Z,1.40
2018-12-09T03:06:28.597Z,1.20
2018-12-09T03:08:57.247Z,1.27
2018-12-09T03:11:25.945Z,1.67
2018-12-09T03:13:54.680Z,1.23
2018-12-09T03:16:23.508Z,1.50
2018-12-09T03:18:52.221Z,1.57
2018-12-09T03:21:20.975Z,1.27
2018-12-09T03:23:49.622Z,1.50
2018-12-09T03:26:18.697Z,1.63
2018-12-09T03:28:47.371Z,1.60
2018-12-09T03:31:16.275Z,1.90
2018-12-09T03:33:45.156Z,1.77
2018-12-09T03:36:15.035Z,1.80
2018-12-09T03:38:43.824Z,2.60
2018-12-09T03:41:12.670Z,3.80
2018-12-09T03:43:41.455Z,3.47
2018-12-09T03:46:10.134Z,3.80
2018-12-09T03:48:39.134Z,4.53
2018-12-09T03:51:08.112Z,4.47
2018-12-09T03:53:37.017Z,3.60
2018-12-09T03:56:05.743Z,3.10
2018-12-09T03:58:34.742Z,3.17
2018-12-09T04:01:03.487Z,3.40
2018-12-09T04:03:32.273Z,3.10
2018-12-09T04:06:01.331Z,2.83
2018-12-09T04:08:30.128Z,3.30
2018-12-09T04:10:59.106Z,3.50
2018-12-09T04:13:27.926Z,3.10
2018-12-09T04:15:57.343Z,2.63
2018-12-09T04:18:26.265Z,3.40
2018-12-09T04:20:54.977Z,2.87
2018-12-09T04:23:23.962Z,3.17
2018-12-09T04:25:52.783Z,2.67
2018-12-09T04:28:21.648Z,3.00
2018-12-09T04:30:50.471Z,3.13
2018-12-09T04:33:19.737Z,2.77
2018-12-09T04:35:48.613Z,2.90
2018-12-09T04:38:17.861Z,2.53
2018-12-09T04:40:46.976Z,3.30
2018-12-09T04:43:15.796Z,2.57
2018-12-09T04:45:44.530Z,2.77
2018-12-09T04:48:13.315Z,2.93
2018-12-09T04:50:42.322Z,2.60
2018-12-09T04:53:11.198Z,2.57
2018-12-09T04:55:39.979Z,2.60
2018-12-09T04:58:08.662Z,2.40
2018-12-09T05:00:58.106Z,2.63
2018-12-09T05:03:27.081Z,2.90
2018-12-09T05:05:55.931Z,2.30
2018-12-09T05:08:24.841Z,2.77
2018-12-09T05:10:53.683Z,2.47
2018-12-09T05:13:22.540Z,2.27
2018-12-09T05:15:51.175Z,3.07
2018-12-09T05:18:19.902Z,2.87
2018-12-09T05:20:48.767Z,2.87
2018-12-09T05:23:17.612Z,2.60
2018-12-09T05:25:46.279Z,2.00
2018-12-09T05:28:14.932Z,2.50
2018-12-09T05:30:43.728Z,2.70
2018-12-09T05:33:12.384Z,3.07
2018-12-09T05:35:41.336Z,2.60
2018-12-09T05:38:09.974Z,3.20
2018-12-09T05:40:39.009Z,3.30
2018-12-09T05:43:07.642Z,3.27
2018-12-09T05:45:36.409Z,3.07
2018-12-09T05:48:05.074Z,3.33
2018-12-09T05:50:33.836Z,3.23
2018-12-09T05:53:02.462Z,3.60
2018-12-09T05:55:31.518Z,3.43
2018-12-09T05:58:00.235Z,3.83
2018-12-09T06:00:28.837Z,3.87
2018-12-09T06:02:58.358Z,5.13
2018-12-09T06:05:27.054Z,4.90
2018-12-09T06:07:55.845Z,4.50
2018-12-09T06:10:24.538Z,3.70
2018-12-09T06:12:53.481Z,3.80
2018-12-09T06:15:22.384Z,3.70
2018-12-09T06:17:51.159Z,4.03
2018-12-09T06:20:19.956Z,4.13
2018-12-09T06:22:48.695Z,3.97
2018-12-09T06:25:17.374Z,4.53
2018-12-09T06:27:47.090Z,4.13
2018-12-09T06:30:16.442Z,3.93
2018-12-09T06:32:45.434Z,4.17
2018-12-09T06:35:14.065Z,3.70
2018-12-09T06:37:42.715Z,3.70
2018-12-09T06:40:11.413Z,4.37
2018-12-09T06:42:40.064Z,3.90
2018-12-09T06:45:09.337Z,3.70
2018-12-09T06:47:38.786Z,3.83
2018-12-09T06:50:10.705Z,3.63
2018-12-09T06:52:40.060Z,3.70
2018-12-09T06:55:10.157Z,3.60
2018-12-09T06:57:39.350Z,3.67
2018-12-09T07:00:09.879Z,3.87
2018-12-09T07:02:38.805Z,4.33
2018-12-09T07:05:08.796Z,3.83
2018-12-09T07:07:37.867Z,3.57
2018-12-09T07:10:08.853Z,3.90
2018-12-09T07:12:38.053Z,3.40
2018-12-09T07:15:07.468Z,3.50
2018-12-09T07:17:36.814Z,3.57
2018-12-09T07:20:06.919Z,4.10
2018-12-09T07:22:35.717Z,4.00
2018-12-09T07:25:04.670Z,3.30
2018-12-09T07:27:34.018Z,3.93
2018-12-09T07:30:02.933Z,3.50
2018-12-09T07:32:32.065Z,3.83
2018-12-09T07:35:01.261Z,3.60
2018-12-09T07:37:30.284Z,3.30
2018-12-09T07:39:59.499Z,3.73
2018-12-09T07:42:28.335Z,3.80
2018-12-09T07:44:57.087Z,3.77
2018-12-09T07:47:25.952Z,3.33
2018-12-09T07:49:54.921Z,3.87
2018-12-09T07:52:23.677Z,3.70
2018-12-09T07:54:52.420Z,3.80
2018-12-09T07:57:21.800Z,4.47
2018-12-09T07:59:50.594Z,4.50
2018-12-09T08:02:19.373Z,4.17
2018-12-09T08:04:48.317Z,4.90
2018-12-09T08:07:17.467Z,3.90
2018-12-09T08:09:46.488Z,3.90
2018-12-09T08:12:15.259Z,3.03
2018-12-09T08:14:43.927Z,3.00
2018-12-09T08:17:12.738Z,2.37
2018-12-09T08:19:41.573Z,2.13
2018-12-09T08:22:10.401Z,1.80
2018-12-09T08:24:39.115Z,1.50
2018-12-09T08:27:07.942Z,1.43
2018-12-09T08:29:36.690Z,1.37
2018-12-09T08:32:05.510Z,1.63
2018-12-09T08:34:34.139Z,0.97
2018-12-09T08:37:02.877Z,1.10
2018-12-09T08:39:31.566Z,1.33
2018-12-09T08:42:00.277Z,1.30
2018-12-09T08:44:28.971Z,1.40
2018-12-09T08:46:57.709Z,1.43
2018-12-09T08:49:26.614Z,1.93
2018-12-09T08:51:55.415Z,1.90
2018-12-09T08:54:24.113Z,2.53
2018-12-09T08:56:52.901Z,2.00
2018-12-09T08:59:21.591Z,2.00
2018-12-09T09:01:50.356Z,2.30
2018-12-09T09:04:19.136Z,1.83
2018-12-09T09:06:47.782Z,1.47
2018-12-09T09:09:22.809Z,1.47
2018-12-09T09:11:51.650Z,2.00
2018-12-09T09:14:20.744Z,1.63
2018-12-09T09:16:49.743Z,1.80
2018-12-09T09:19:18.680Z,1.73
2018-12-09T09:21:47.412Z,1.87
2018-12-09T09:24:16.188Z,1.90
2018-12-09T09:26:45.023Z,1.90
2018-12-09T09:29:14.034Z,1.73
2018-12-09T09:31:43.376Z,1.53
2018-12-09T09:34:12.068Z,2.40
2018-12-09T09:36:40.672Z,1.87
2018-12-09T09:39:09.472Z,1.70
2018-12-09T09:41:38.358Z,1.70
2018-12-09T09:44:07.452Z,1.83
2018-12-09T09:46:36.453Z,1.67
2018-12-09T09:49:05.260Z,2.10
2018-12-09T09:51:34.091Z,2.43
2018-12-09T09:54:02.733Z,1.90
2018-12-09T09:56:31.585Z,2.20
2018-12-09T09:59:00.370Z,1.80
2018-12-09T10:01:29.333Z,2.87
2018-12-09T10:03:58.387Z,1.87
2018-12-09T10:06:27.590Z,2.30
2018-12-09T10:08:56.791Z,2.20
2018-12-09T10:11:25.823Z,2.20
2018-12-09T10:13:54.604Z,1.87
2018-12-09T10:16:23.404Z,2.40
2018-12-09T10:18:52.361Z,2.10
2018-12-09T10:21:21.086Z,2.10
2018-12-09T10:23:50.023Z,1.80
2018-12-09T10:26:18.946Z,1.67
2018-12-09T10:28:47.717Z,1.63
2018-12-09T10:31:16.633Z,0.70
2018-12-09T10:33:45.475Z,0.80
2018-12-09T10:36:14.590Z,0.90
2018-12-09T10:38:43.294Z,0.67
2018-12-09T10:41:12.157Z,1.00
2018-12-09T10:43:41.373Z,0.67
2018-12-09T10:46:10.251Z,1.03
2018-12-09T10:48:38.988Z,0.60
2018-12-09T10:51:08.139Z,2.30
2018-12-09T10:53:36.983Z,1.00
2018-12-09T10:56:05.812Z,1.20
2018-12-09T10:58:34.483Z,1.30
2018-12-09T11:01:09.797Z,0.90
2018-12-09T11:03:38.504Z,1.50
2018-12-09T11:06:07.333Z,1.63
2018-12-09T11:08:36.079Z,0.70
2018-12-09T11:11:04.824Z,0.77
2018-12-09T11:13:33.548Z,0.73
2018-12-09T11:17:04.932Z,1.10
2018-12-09T11:19:33.985Z,0.90
2018-12-09T11:22:02.785Z,0.60
2018-12-09T11:24:31.688Z,0.57
2018-12-09T11:27:00.682Z,1.40
2018-12-09T11:29:29.687Z,1.50
2018-12-09T11:31:58.869Z,0.97
2018-12-09T11:34:27.722Z,0.90
2018-12-09T11:36:56.571Z,0.60
2018-12-09T11:39:25.276Z,0.90
2018-12-09T11:41:54.275Z,0.50
2018-12-09T11:44:23.419Z,0.63
2018-12-09T11:46:52.560Z,1.23
2018-12-09T11:49:21.630Z,1.40
2018-12-09T11:51:50.360Z,1.70
2018-12-09T11:54:19.308Z,1.37
2018-12-09T11:56:47.976Z,1.40
2018-12-09T11:59:17.366Z,0.97
2018-12-09T12:01:46.352Z,1.80
2018-12-09T12:04:15.069Z,1.50
2018-12-09T12:06:43.945Z,1.50
2018-12-09T12:09:13.050Z,1.60
2018-12-09T12:11:41.932Z,1.57
2018-12-09T12:14:10.713Z,1.40
2018-12-09T12:16:39.819Z,1.73
2018-12-09T12:19:08.716Z,1.80
2018-12-09T12:21:37.718Z,1.80
2018-12-09T12:24:06.639Z,1.90
2018-12-09T12:26:35.560Z,1.90
2018-12-09T12:29:04.939Z,2.13
2018-12-09T12:31:33.660Z,2.37
2018-12-09T12:34:02.439Z,2.00
2018-12-09T12:36:31.169Z,1.97
2018-12-09T12:39:00.143Z,2.10
2018-12-09T12:41:29.055Z,2.40
2018-12-09T12:43:57.871Z,2.30
2018-12-09T12:46:26.838Z,2.00
2018-12-09T12:48:55.692Z,2.07
2018-12-09T12:51:24.421Z,2.13
2018-12-09T12:53:53.207Z,2.10
2018-12-09T12:56:22.236Z,2.20
2018-12-09T12:58:50.902Z,2.40
2018-12-09T13:01:19.547Z,2.17
2018-12-09T13:03:48.221Z,2.10
2018-12-09T13:06:17.596Z,2.67
2018-12-09T13:08:46.545Z,2.63
2018-12-09T13:11:15.521Z,2.50
2018-12-09T13:13:44.348Z,2.47
2018-12-09T13:16:13.065Z,2.90
2018-12-09T13:18:41.660Z,2.40
2018-12-09T13:21:10.544Z,2.60
2018-12-09T13:23:39.360Z,3.03
2018-12-09T13:26:08.227Z,2.60
2018-12-09T13:28:37.255Z,2.80
2018-12-09T13:31:06.383Z,2.80
2018-12-09T13:33:35.408Z,2.93
2018-12-09T13:36:04.671Z,3.57
2018-12-09T13:38:33.343Z,3.47
2018-12-09T13:41:02.076Z,2.87
2018-12-09T13:43:30.889Z,3.37
2018-12-09T13:45:59.577Z,3.00
2018-12-09T13:48:28.212Z,2.50
2018-12-09T13:50:56.915Z,3.00
2018-12-09T13:53:25.939Z,2.50
2018-12-09T13:55:55.060Z,2.47
2018-12-09T13:58:23.709Z,2.40
2018-12-09T14:00:52.591Z,2.03
2018-12-09T14:03:21.539Z,1.43
2018-12-09T14:05:50.229Z,1.50
2018-12-09T14:08:18.902Z,1.10
2018-12-09T14:10:47.707Z,0.77
2018-12-09T14:13:16.442Z,0.87
2018-12-09T14:15:45.271Z,0.80
2018-12-09T14:18:13.902Z,0.97
2018-12-09T14:20:42.678Z,1.27
2018-12-09T14:23:11.430Z,1.03
2018-12-09T14:25:40.451Z,1.30
2018-12-09T14:28:09.827Z,1.20
2018-12-09T14:30:38.603Z,1.30
2018-12-09T14:33:07.318Z,1.10
2018-12-09T14:35:35.931Z,1.10
2018-12-09T14:38:04.788Z,0.90
2018-12-09T14:40:33.576Z,1.33
2018-12-09T14:43:02.249Z,1.00
2018-12-09T14:45:31.055Z,1.57
2018-12-09T14:47:59.761Z,1.43
2018-12-09T14:50:28.571Z,2.50
2018-12-09T14:52:57.273Z,1.80
2018-12-09T14:55:26.112Z,1.53
2018-12-09T14:57:55.008Z,1.90
2018-12-09T15:00:24.921Z,1.60
2018-12-09T15:02:53.795Z,1.60
2018-12-09T15:05:22.852Z,2.00
2018-12-09T15:07:51.551Z,2.00
2018-12-09T15:10:20.226Z,1.73
2018-12-09T15:12:49.080Z,1.50
2018-12-09T15:15:17.930Z,1.87
2018-12-09T15:17:46.948Z,1.80
2018-12-09T15:20:15.886Z,1.90
2018-12-09T15:22:44.863Z,1.70
2018-12-09T15:25:13.937Z,1.67
2018-12-09T15:27:43.108Z,1.87
2018-12-09T15:30:11.862Z,1.70
2018-12-09T15:32:40.756Z,2.10
2018-12-09T15:35:09.682Z,2.57
2018-12-09T15:37:38.513Z,2.50
2018-12-09T15:40:07.534Z,2.93
2018-12-09T15:42:36.338Z,2.60
2018-12-09T15:45:05.674Z,2.30
2018-12-09T15:47:34.368Z,2.20
2018-12-09T15:50:03.081Z,2.20
2018-12-09T15:52:31.809Z,2.27
2018-12-09T15:55:00.564Z,2.90
2018-12-09T15:57:29.437Z,2.50
2018-12-09T15:59:58.157Z,2.70
2018-12-09T16:02:28.198Z,2.60
2018-12-09T16:04:57.436Z,2.50
2018-12-09T16:07:26.199Z,2.70
2018-12-09T16:09:54.995Z,2.33
2018-12-09T16:12:23.873Z,2.40
2018-12-09T16:14:52.547Z,2.50
2018-12-09T16:17:21.660Z,2.40
2018-12-09T16:19:50.319Z,2.30
2018-12-09T16:22:19.049Z,2.40
2018-12-09T16:24:48.063Z,2.57
2018-12-09T16:27:16.741Z,2.33
2018-12-09T16:29:45.360Z,2.17
2018-12-09T16:32:13.929Z,2.30
2018-12-09T16:34:42.685Z,2.43
2018-12-09T16:37:11.406Z,2.80
2018-12-09T16:39:40.118Z,2.37
2018-12-09T16:42:09.047Z,2.67
2018-12-09T16:44:37.876Z,2.43
2018-12-09T16:47:06.185Z,2.43
2018-12-09T16:49:34.866Z,2.50
2018-12-09T16:52:03.480Z,2.60
2018-12-09T16:54:32.132Z,2.67
2018-12-09T16:57:00.786Z,2.60
2018-12-09T16:59:29.611Z,2.13
2018-12-09T17:01:58.305Z,2.20
2018-12-09T17:04:27.128Z,2.23
2018-12-09T17:06:56.208Z,2.03
2018-12-09T17:09:25.274Z,1.90
2018-12-09T17:11:54.159Z,1.60
2018-12-09T17:14:23.108Z,2.00
2018-12-09T17:16:52.035Z,1.80
2018-12-09T17:19:20.873Z,2.53
2018-12-09T17:21:49.799Z,1.57
2018-12-09T17:24:18.579Z,1.20
2018-12-09T17:26:47.261Z,1.50
2018-12-09T17:29:16.156Z,1.00
2018-12-09T17:31:44.940Z,0.90
2018-12-09T17:34:13.666Z,0.90
2018-12-09T17:36:42.402Z,0.90
2018-12-09T17:39:11.044Z,0.70
2018-12-09T17:41:39.820Z,0.60
2018-12-09T17:44:08.526Z,0.53
2018-12-09T17:46:37.313Z,0.60
2018-12-09T17:49:06.275Z,0.60
2018-12-09T17:51:35.165Z,0.70
2018-12-09T17:54:04.117Z,0.93
2018-12-09T17:56:32.943Z,0.80
2018-12-09T17:59:01.665Z,0.73
2018-12-09T18:01:30.376Z,0.90
2018-12-09T18:04:00.640Z,1.37
2018-12-09T18:06:30.122Z,1.47
2018-12-09T18:08:59.315Z,1.60
2018-12-09T18:11:28.297Z,1.03
2018-12-09T18:13:57.451Z,1.40
2018-12-09T18:16:26.490Z,1.47
2018-12-09T18:18:55.464Z,1.53
2018-12-09T18:21:24.619Z,1.90
2018-12-09T18:23:53.755Z,2.17
2018-12-09T18:26:22.877Z,1.90
2018-12-09T18:28:51.996Z,2.17
2018-12-09T18:31:22.098Z,2.03
2018-12-09T18:33:51.255Z,7.30
2018-12-09T18:36:20.419Z,5.23
2018-12-09T18:38:50.086Z,4.00
2018-12-09T18:41:19.136Z,2.57
2018-12-09T18:43:48.482Z,4.43
2018-12-09T18:46:17.888Z,3.20
2018-12-09T18:48:47.206Z,3.00
2018-12-09T18:51:16.375Z,2.40
2018-12-09T18:53:45.774Z,2.47
2018-12-09T18:56:15.135Z,2.40
2018-12-09T18:58:44.471Z,3.30
2018-12-09T19:01:14.466Z,2.73
2018-12-09T19:03:43.645Z,2.20
2018-12-09T19:06:12.939Z,2.33
2018-12-09T19:08:43.071Z,2.47
2018-12-09T19:11:13.169Z,2.17
2018-12-09T19:13:42.435Z,2.77
2018-12-09T19:16:11.794Z,2.97
2018-12-09T19:18:41.071Z,2.50
2018-12-09T19:21:10.302Z,2.23
2018-12-09T19:23:39.451Z,2.47
2018-12-09T19:26:08.656Z,2.40
2018-12-09T19:28:37.791Z,2.00
2018-12-09T19:31:07.093Z,1.93
2018-12-09T19:33:36.378Z,2.27
2018-12-09T19:36:05.635Z,1.70
2018-12-09T19:38:40.177Z,2.20
2018-12-09T19:41:06.240Z,2.07
2018-12-09T19:43:35.423Z,1.57
2018-12-09T19:46:05.004Z,1.40
2018-12-09T19:48:34.322Z,1.13
2018-12-09T19:51:03.759Z,0.90
2018-12-09T19:53:32.813Z,1.30
2018-12-09T19:56:02.152Z,1.10
2018-12-09T19:58:31.344Z,0.93
2018-12-09T20:01:00.566Z,2.00
2018-12-09T20:03:29.729Z,1.47
2018-12-09T20:05:58.974Z,1.40
2018-12-09T20:08:28.246Z,1.50
2018-12-09T20:10:57.456Z,1.40
2018-12-09T20:13:26.699Z,1.50
2018-12-09T20:15:56.174Z,1.73
2018-12-09T20:18:25.512Z,1.67
2018-12-09T20:20:56.088Z,1.80
2018-12-09T20:23:25.736Z,2.23
2018-12-09T20:25:54.962Z,2.17
2018-12-09T20:28:24.077Z,2.30
2018-12-09T20:30:53.244Z,2.30
2018-12-09T20:33:22.551Z,1.90
2018-12-09T20:35:51.778Z,1.63
2018-12-09T20:38:20.991Z,1.47
2018-12-09T20:40:50.294Z,1.27
2018-12-09T20:43:19.560Z,1.40
2018-12-09T20:45:49.025Z,1.53
2018-12-09T20:48:18.260Z,1.67
2018-12-09T20:50:47.491Z,1.53
2018-12-09T20:53:16.721Z,2.37
2018-12-09T20:55:45.975Z,1.40
2018-12-09T20:58:15.178Z,1.33
2018-12-09T21:00:44.333Z,1.23
2018-12-09T21:03:13.361Z,1.23
2018-12-09T21:05:42.505Z,1.43
2018-12-09T21:08:11.453Z,1.30
2018-12-09T21:18:07.587Z,1.67
2018-12-09T21:20:36.716Z,1.20
2018-12-09T21:23:05.489Z,1.20
2018-12-09T21:25:34.302Z,1.40
2018-12-09T21:28:03.624Z,1.53
2018-12-09T21:30:32.357Z,1.50
2018-12-09T21:33:01.765Z,1.30
2018-12-09T21:35:31.223Z,1.77
2018-12-09T21:38:00.892Z,1.70
2018-12-09T21:40:30.412Z,1.60
2018-12-09T21:42:59.334Z,2.30
2018-12-09T21:45:28.294Z,1.50
2018-12-09T21:47:57.245Z,1.70
2018-12-09T21:50:26.029Z,2.03
2018-12-09T21:52:54.888Z,2.40
2018-12-09T21:55:23.888Z,1.80
2018-12-09T21:57:53.165Z,1.57
2018-12-09T22:00:22.424Z,1.50
2018-12-09T22:02:51.683Z,0.80
2018-12-09T22:05:20.581Z,0.90
2018-12-09T22:07:49.557Z,1.00
2018-12-09T22:10:18.345Z,1.30
2018-12-09T22:12:47.055Z,0.80
2018-12-09T22:15:15.727Z,0.73
2018-12-09T22:17:44.613Z,0.70
2018-12-09T22:20:14.388Z,0.77
2018-12-09T22:22:43.538Z,0.80
2018-12-09T22:25:12.543Z,0.90
2018-12-09T22:27:41.464Z,0.90
2018-12-09T22:30:10.826Z,0.80
2018-12-09T22:32:39.594Z,0.90
2018-12-09T22:35:08.800Z,1.10
2018-12-09T22:37:37.571Z,0.60
2018-12-09T22:41:10.196Z,0.97
2018-12-09T22:43:39.219Z,1.20
2018-12-09T22:46:07.910Z,1.30
2018-12-09T22:48:36.884Z,1.60
2018-12-09T22:51:05.801Z,1.53
2018-12-09T22:53:34.881Z,1.80
2018-12-09T22:56:04.077Z,1.60
2018-12-09T22:58:32.851Z,1.73
2018-12-09T23:01:06.797Z,2.00
2018-12-09T23:03:35.540Z,1.80
2018-12-09T23:06:04.303Z,2.30
2018-12-09T23:08:32.991Z,1.93
2018-12-09T23:11:01.729Z,2.80
2018-12-09T23:13:30.490Z,2.83
2018-12-09T23:15:59.196Z,2.40
2018-12-09T23:18:28.326Z,2.10
2018-12-09T23:20:57.162Z,2.27
2018-12-09T23:23:25.976Z,2.63
2018-12-09T23:25:54.812Z,2.23
2018-12-09T23:28:23.513Z,2.27
2018-12-09T23:30:52.271Z,2.43
2018-12-09T23:33:21.000Z,2.60
2018-12-09T23:35:49.944Z,2.90
2018-12-09T23:38:18.631Z,3.10
2018-12-09T23:40:47.269Z,2.87
2018-12-09T23:43:15.886Z,2.80
2018-12-09T23:45:45.105Z,2.90
2018-12-09T23:48:13.901Z,2.80
2018-12-09T23:50:42.782Z,3.07
2018-12-09T23:53:11.576Z,3.33
2018-12-09T23:55:40.446Z,3.50
2018-12-09T23:58:09.190Z,3.10
